createdAt,value
2023-05-24T00:00:01.962Z,3.10
2023-05-24T00:02:33.449Z,3.90
2023-05-24T00:07:34.131Z,4.50
2023-05-24T00:10:03.523Z,4.40
2023-05-24T00:12:33.619Z,4.90
2023-05-24T00:15:04.269Z,5.80
2023-05-24T00:17:34.645Z,4.40
2023-05-24T00:20:05.080Z,3.00
2023-05-24T00:22:37.663Z,2.70
2023-05-24T00:25:09.037Z,3.40
2023-05-24T00:27:39.173Z,5.60
2023-05-24T00:30:09.058Z,5.50
2023-05-24T00:32:37.282Z,3.20
2023-05-24T00:35:08.153Z,4.60
2023-05-24T00:37:40.283Z,3.90
2023-05-24T00:40:11.045Z,5.30
2023-05-24T00:45:11.541Z,3.30
2023-05-24T00:47:42.195Z,3.60
2023-05-24T00:50:17.060Z,3.50
2023-05-24T00:52:49.609Z,3.50
2023-05-24T00:55:19.865Z,4.30
2023-05-24T00:57:49.403Z,1.80
2023-05-24T01:00:20.078Z,3.40
2023-05-24T01:02:51.037Z,3.30
2023-05-24T01:05:21.878Z,3.60
2023-05-24T01:08:09.868Z,2.50
2023-05-24T01:10:51.599Z,3.50
2023-05-24T01:13:31.994Z,3.60
2023-05-24T01:16:07.247Z,2.30
2023-05-24T01:18:40.933Z,4.20
2023-05-24T01:21:28.218Z,3.40
2023-05-24T01:24:16.834Z,3.60
2023-05-24T01:27:06.545Z,4.80
2023-05-24T01:29:38.668Z,3.40
2023-05-24T01:32:08.689Z,1.60
2023-05-24T01:34:38.277Z,2.80
2023-05-24T01:37:06.938Z,4.40
2023-05-24T01:39:36.385Z,3.40
2023-05-24T01:42:20.678Z,3.70
2023-05-24T01:45:00.941Z,3.20
2023-05-24T01:47:39.970Z,3.90
2023-05-24T01:50:19.572Z,4.20
2023-05-24T01:52:53.280Z,2.00
2023-05-24T01:55:23.689Z,3.20
2023-05-24T01:58:01.043Z,1.50
2023-05-24T02:00:32.393Z,3.70
2023-05-24T02:03:02.198Z,4.50
2023-05-24T02:05:30.728Z,4.50
2023-05-24T02:10:27.732Z,3.80
2023-05-24T02:12:59.561Z,1.70
2023-05-24T02:15:30.451Z,4.40
2023-05-24T02:18:02.415Z,3.70
2023-05-24T02:20:33.490Z,1.30
2023-05-24T02:23:01.779Z,1.30
2023-05-24T02:25:33.953Z,2.80
2023-05-24T02:28:03.634Z,2.10
2023-05-24T02:30:33.025Z,3.50
2023-05-24T02:33:02.140Z,1.20
2023-05-24T02:35:34.418Z,1.70
2023-05-24T02:38:06.865Z,1.30
2023-05-24T02:40:36.765Z,1.50
2023-05-24T02:43:07.539Z,2.90
2023-05-24T02:48:06.838Z,3.80
2023-05-24T02:50:38.029Z,2.60
2023-05-24T02:53:06.938Z,3.90
2023-05-24T02:58:10.849Z,2.50
2023-05-24T03:03:10.918Z,3.50
2023-05-24T03:08:10.762Z,2.80
2023-05-24T03:13:12.274Z,3.40
2023-05-24T03:15:43.295Z,3.90
2023-05-24T03:18:12.832Z,3.70
2023-05-24T03:20:43.709Z,3.20
2023-05-24T03:28:15.862Z,3.90
2023-05-24T03:30:46.218Z,1.00
2023-05-24T03:38:13.808Z,2.70
2023-05-24T03:43:21.357Z,4.30
2023-05-24T03:48:28.865Z,4.40
2023-05-24T03:53:28.351Z,4.90
2023-05-24T03:55:59.093Z,5.10
2023-05-24T03:58:30.135Z,3.70
2023-05-24T04:00:58.415Z,2.40
2023-05-24T04:03:28.298Z,4.70
2023-05-24T04:13:26.326Z,3.10
2023-05-24T04:15:56.076Z,3.00
2023-05-24T04:18:25.715Z,3.60
2023-05-24T04:20:56.524Z,6.00
2023-05-24T04:28:27.557Z,6.00
2023-05-24T04:30:57.772Z,5.00
2023-05-24T04:40:59.777Z,4.10
2023-05-24T04:43:28.346Z,5.20
2023-05-24T04:46:00.586Z,4.20
2023-05-24T04:48:30.094Z,5.40
2023-05-24T04:51:00.835Z,4.70
2023-05-24T04:53:29.129Z,4.80
2023-05-24T04:55:57.514Z,5.30
2023-05-24T05:03:29.538Z,7.70
2023-05-24T05:05:57.961Z,5.70
2023-05-24T05:08:27.684Z,5.40
2023-05-24T05:10:57.693Z,7.00
2023-05-24T05:13:26.953Z,7.10
2023-05-24T05:15:55.376Z,7.60
2023-05-24T05:18:26.192Z,7.80
2023-05-24T05:28:26.857Z,9.50
2023-05-24T05:30:56.904Z,7.50
2023-05-24T05:33:26.822Z,8.70
2023-05-24T05:35:56.643Z,7.50
2023-05-24T05:38:26.223Z,10.00
2023-05-24T05:40:55.590Z,9.60
2023-05-24T05:43:25.119Z,10.00
2023-05-24T05:45:54.831Z,7.90
2023-05-24T05:48:27.022Z,8.90
2023-05-24T05:50:55.506Z,7.40
2023-05-24T05:53:27.565Z,9.60
2023-05-24T05:55:58.664Z,9.90
2023-05-24T05:58:27.060Z,10.20
2023-05-24T06:00:55.393Z,10.30
2023-05-24T06:05:56.842Z,8.00
2023-05-24T06:10:55.716Z,7.90
2023-05-24T06:13:26.627Z,8.60
2023-05-24T06:15:56.519Z,11.10
2023-05-24T06:18:27.631Z,11.20
2023-05-24T06:20:59.963Z,10.30
2023-05-24T06:25:58.226Z,12.10
2023-05-24T06:28:27.983Z,10.60
2023-05-24T06:30:56.432Z,12.00
2023-05-24T06:33:27.164Z,11.50
2023-05-24T06:35:55.355Z,11.90
2023-05-24T06:38:25.093Z,11.40
2023-05-24T06:40:53.783Z,10.90
2023-05-24T06:43:23.191Z,12.00
2023-05-24T06:48:24.236Z,10.50
2023-05-24T06:55:51.656Z,11.20
2023-05-24T06:58:22.654Z,9.90
2023-05-24T07:00:51.172Z,10.90
2023-05-24T07:03:20.620Z,10.80
2023-05-24T07:05:50.156Z,9.70
2023-05-24T07:08:19.574Z,10.40
2023-05-24T07:10:50.313Z,12.60
2023-05-24T07:13:19.886Z,10.40
2023-05-24T07:18:19.297Z,11.90
2023-05-24T07:20:48.037Z,13.20
2023-05-24T07:23:17.544Z,14.80
2023-05-24T07:25:48.239Z,14.40
2023-05-24T07:30:51.493Z,14.70
2023-05-24T07:33:20.243Z,14.20
2023-05-24T07:38:19.918Z,14.10
2023-05-24T07:40:49.569Z,14.10
2023-05-24T07:43:17.973Z,14.10
2023-05-24T07:45:46.310Z,13.90
2023-05-24T07:48:18.451Z,14.50
2023-05-24T07:50:52.698Z,14.00
2023-05-24T07:53:24.247Z,14.60
2023-05-24T07:55:53.926Z,14.80
2023-05-24T08:00:53.692Z,16.20
2023-05-24T08:03:27.137Z,16.10
2023-05-24T08:05:55.449Z,14.20
2023-05-24T08:08:26.253Z,13.60
2023-05-24T08:10:55.823Z,13.30
2023-05-24T08:13:25.793Z,14.20
2023-05-24T08:15:55.551Z,12.90
2023-05-24T08:18:26.709Z,14.30
2023-05-24T08:20:56.107Z,14.30
2023-05-24T08:23:27.374Z,16.90
2023-05-24T08:25:58.468Z,15.90
2023-05-24T08:28:28.464Z,16.70
2023-05-24T08:30:58.665Z,17.20
2023-05-24T08:33:29.207Z,17.50
2023-05-24T08:38:29.020Z,19.40
2023-05-24T08:40:58.666Z,19.60
2023-05-24T08:43:32.094Z,19.20
2023-05-24T08:46:04.776Z,18.30
2023-05-24T08:48:35.981Z,17.20
2023-05-24T08:51:06.746Z,17.30
2023-05-24T08:53:38.906Z,16.30
2023-05-24T08:56:08.954Z,15.50
2023-05-24T08:58:39.659Z,14.40
2023-05-24T09:01:09.950Z,13.60
2023-05-24T09:03:44.671Z,13.10
2023-05-24T09:06:17.483Z,13.90
2023-05-24T09:11:17.568Z,13.40
2023-05-24T09:13:46.565Z,12.40
2023-05-24T09:16:17.838Z,11.30
2023-05-24T09:18:50.270Z,13.10
2023-05-24T09:21:20.793Z,12.00
2023-05-24T09:23:52.529Z,10.90
2023-05-24T09:28:58.681Z,13.10
2023-05-24T09:31:41.464Z,11.10
2023-05-24T09:34:16.957Z,12.50
2023-05-24T09:36:49.495Z,11.30
2023-05-24T09:39:21.690Z,12.80
2023-05-24T09:41:58.806Z,12.90
2023-05-24T09:44:28.001Z,13.00
2023-05-24T09:47:06.369Z,10.70
2023-05-24T09:49:40.058Z,10.50
2023-05-24T09:52:10.791Z,11.90
2023-05-24T09:54:42.927Z,10.90
2023-05-24T09:57:12.373Z,10.50
2023-05-24T09:59:44.178Z,13.40
2023-05-24T10:02:14.240Z,12.60
2023-05-24T10:04:45.709Z,11.30
2023-05-24T10:07:15.008Z,14.30
2023-05-24T10:09:45.765Z,13.70
2023-05-24T10:14:46.693Z,13.50
2023-05-24T10:17:16.205Z,13.80
2023-05-24T10:19:47.053Z,12.90
2023-05-24T10:22:18.582Z,12.90
2023-05-24T10:24:48.765Z,14.00
2023-05-24T10:27:22.421Z,14.00
2023-05-24T10:30:00.310Z,13.10
2023-05-24T10:32:32.611Z,12.80
2023-05-24T10:35:05.885Z,12.40
2023-05-24T10:37:35.866Z,12.60
2023-05-24T10:40:06.433Z,12.80
2023-05-24T10:42:37.005Z,14.00
2023-05-24T10:45:34.711Z,14.10
2023-05-24T10:48:12.509Z,14.60
2023-05-24T10:50:44.832Z,14.20
2023-05-24T10:53:15.665Z,13.80
2023-05-24T10:55:58.632Z,15.00
2023-05-24T10:58:46.182Z,14.40
2023-05-24T11:01:15.840Z,13.40
2023-05-24T11:03:46.052Z,15.10
2023-05-24T11:06:19.286Z,14.00
2023-05-24T11:08:48.751Z,14.50
2023-05-24T11:11:25.420Z,14.30
2023-05-24T11:13:58.846Z,13.20
2023-05-24T11:16:39.427Z,14.20
2023-05-24T11:19:18.181Z,13.10
2023-05-24T11:21:50.525Z,13.10
2023-05-24T11:24:22.111Z,15.60
2023-05-24T11:26:51.940Z,14.20
2023-05-24T11:29:23.745Z,12.90
2023-05-24T11:31:54.589Z,14.10
2023-05-24T11:34:27.494Z,15.30
2023-05-24T11:37:01.445Z,14.30
2023-05-24T11:39:32.501Z,13.40
2023-05-24T11:44:38.317Z,14.60
2023-05-24T11:47:09.014Z,14.50
2023-05-24T11:49:38.561Z,15.70
2023-05-24T11:52:09.819Z,15.70
2023-05-24T11:57:09.025Z,15.20
2023-05-24T12:02:10.489Z,16.30
2023-05-24T12:04:41.449Z,16.70
2023-05-24T12:07:14.252Z,18.40
2023-05-24T12:09:45.306Z,19.10
2023-05-24T12:12:13.566Z,17.20
2023-05-24T12:14:43.246Z,15.70
2023-05-24T12:17:17.534Z,15.20
2023-05-24T12:19:45.974Z,16.30
2023-05-24T12:22:15.501Z,15.90
2023-05-24T12:27:14.893Z,14.30
2023-05-24T12:29:43.642Z,15.00
2023-05-24T12:32:14.627Z,13.60
2023-05-24T12:34:47.229Z,14.00
2023-05-24T12:37:20.870Z,13.90
2023-05-24T12:42:23.793Z,14.20
2023-05-24T12:44:54.403Z,13.80
2023-05-24T12:47:23.354Z,14.40
2023-05-24T12:49:51.739Z,14.00
2023-05-24T12:52:24.694Z,14.80
2023-05-24T12:54:54.312Z,14.80
2023-05-24T12:57:24.164Z,16.00
2023-05-24T12:59:52.399Z,14.20
2023-05-24T13:02:22.461Z,16.20
2023-05-24T13:04:51.218Z,14.00
2023-05-24T13:07:22.891Z,14.10
2023-05-24T13:09:52.459Z,13.60
2023-05-24T13:12:22.911Z,13.40
2023-05-24T13:14:52.999Z,14.50
2023-05-24T13:17:22.986Z,12.60
2023-05-24T13:27:22.196Z,15.00
2023-05-24T13:30:00.933Z,12.30
2023-05-24T13:32:31.932Z,12.40
2023-05-24T13:37:34.687Z,13.10
2023-05-24T13:42:34.617Z,12.90
2023-05-24T13:45:06.035Z,15.20
2023-05-24T13:47:40.480Z,14.10
2023-05-24T13:52:44.418Z,14.10
2023-05-24T13:55:13.530Z,15.10
2023-05-24T13:57:51.583Z,12.80
2023-05-24T14:00:21.623Z,13.60
2023-05-24T14:02:52.074Z,13.00
2023-05-24T14:07:56.582Z,13.30
2023-05-24T14:10:26.297Z,12.80
2023-05-24T14:15:47.883Z,14.80
2023-05-24T14:23:18.944Z,13.30
2023-05-24T14:25:47.548Z,12.40
2023-05-24T14:28:15.814Z,12.40
2023-05-24T14:30:45.522Z,12.50
2023-05-24T14:33:15.022Z,12.60
2023-05-24T14:35:43.976Z,13.00
2023-05-24T14:38:12.852Z,12.80
2023-05-24T14:40:48.521Z,12.60
2023-05-24T14:45:47.553Z,15.00
2023-05-24T14:50:47.426Z,14.60
2023-05-24T14:53:15.854Z,14.60
2023-05-24T14:55:45.712Z,13.70
2023-05-24T14:58:15.809Z,13.80
2023-05-24T15:00:45.855Z,12.80
2023-05-24T15:03:17.256Z,13.40
2023-05-24T15:05:45.680Z,14.20
2023-05-24T15:10:47.996Z,14.80
2023-05-24T15:13:17.965Z,15.10
2023-05-24T15:20:46.962Z,14.20
2023-05-24T15:23:15.622Z,15.00
2023-05-24T15:25:45.281Z,15.00
2023-05-24T15:28:17.279Z,15.70
2023-05-24T15:30:47.288Z,16.40
2023-05-24T15:35:48.347Z,16.60
2023-05-24T15:38:18.653Z,15.20
2023-05-24T15:40:49.889Z,16.50
2023-05-24T15:43:20.981Z,15.00
2023-05-24T15:45:51.890Z,16.10
2023-05-24T15:51:39.807Z,15.80
2023-05-24T15:53:43.235Z,16.00
2023-05-24T15:56:12.846Z,14.20
2023-05-24T15:58:42.593Z,14.10
2023-05-24T16:03:40.797Z,14.50
2023-05-24T16:06:09.538Z,14.70
2023-05-24T16:08:40.288Z,13.90
2023-05-24T16:11:10.671Z,15.10
2023-05-24T16:16:11.574Z,17.20
2023-05-24T16:18:42.346Z,16.20
2023-05-24T16:21:12.121Z,17.40
2023-05-24T16:28:40.047Z,15.30
2023-05-24T16:31:12.165Z,15.40
2023-05-24T16:33:41.579Z,15.60
2023-05-24T16:36:12.875Z,15.40
2023-05-24T16:41:11.063Z,15.20
2023-05-24T16:43:40.610Z,17.10
2023-05-24T16:48:41.783Z,14.90
2023-05-24T16:51:11.628Z,15.10
2023-05-24T16:53:41.320Z,17.70
2023-05-24T16:56:11.974Z,15.80
2023-05-24T17:01:13.068Z,17.50
2023-05-24T17:03:42.771Z,16.30
2023-05-24T17:06:12.446Z,16.70
2023-05-24T17:08:41.916Z,15.90
2023-05-24T17:11:11.364Z,14.80
2023-05-24T17:13:42.019Z,15.60
2023-05-24T17:16:14.172Z,14.70
2023-05-24T17:18:43.607Z,15.30
2023-05-24T17:21:13.055Z,16.30
2023-05-24T17:23:42.798Z,15.50
2023-05-24T17:26:14.731Z,14.80
2023-05-24T17:28:46.263Z,14.40
2023-05-24T17:31:17.368Z,14.40
2023-05-24T17:33:46.876Z,14.40
2023-05-24T17:36:16.680Z,14.40
2023-05-24T17:41:16.157Z,16.00
2023-05-24T17:46:13.643Z,13.60
2023-05-24T17:48:45.911Z,13.90
2023-05-24T17:51:14.784Z,15.40
2023-05-24T17:56:16.260Z,13.00
2023-05-24T17:58:47.577Z,13.80
2023-05-24T18:03:49.463Z,13.60
2023-05-24T18:06:19.136Z,14.60
2023-05-24T18:13:48.954Z,14.40
2023-05-24T18:18:50.585Z,12.40
2023-05-24T18:23:50.573Z,12.20
2023-05-24T18:26:20.478Z,13.00
2023-05-24T18:28:51.629Z,12.00
2023-05-24T18:31:20.553Z,13.10
2023-05-24T18:33:53.593Z,14.20
2023-05-24T18:38:52.120Z,13.90
2023-05-24T18:41:20.313Z,13.50
2023-05-24T18:43:51.059Z,12.70
2023-05-24T18:46:20.558Z,12.30
2023-05-24T18:51:20.355Z,11.80
2023-05-24T18:53:50.648Z,11.80
2023-05-24T18:56:20.338Z,12.20
2023-05-24T18:58:50.271Z,11.50
2023-05-24T19:01:19.728Z,11.10
2023-05-24T19:03:48.288Z,10.40
2023-05-24T19:06:18.043Z,11.00
2023-05-24T19:08:47.717Z,10.70
2023-05-24T19:13:46.071Z,12.00
2023-05-24T19:16:17.671Z,9.40
2023-05-24T19:21:20.059Z,9.70
2023-05-24T19:23:50.881Z,9.70
2023-05-24T19:26:19.106Z,11.70
2023-05-24T19:28:51.797Z,11.50
2023-05-24T19:33:59.792Z,11.10
2023-05-24T19:36:32.750Z,10.80
2023-05-24T19:39:02.414Z,8.70
2023-05-24T19:44:00.659Z,8.70
2023-05-24T19:46:30.513Z,8.40
2023-05-24T19:53:59.732Z,8.50
2023-05-24T19:56:31.753Z,9.90
2023-05-24T19:59:01.194Z,8.50
2023-05-24T20:01:32.155Z,10.00
2023-05-24T20:04:00.862Z,9.30
2023-05-24T20:06:30.820Z,7.50
2023-05-24T20:09:00.351Z,7.50
2023-05-24T20:11:31.458Z,8.70
2023-05-24T20:16:32.742Z,8.30
2023-05-24T20:21:32.192Z,8.20
2023-05-24T20:26:33.089Z,8.70
2023-05-24T20:29:02.542Z,8.30
2023-05-24T20:31:31.327Z,10.10
2023-05-24T20:33:59.579Z,9.00
2023-05-24T20:36:29.120Z,8.70
2023-05-24T20:38:57.601Z,10.60
2023-05-24T20:41:30.341Z,8.00
2023-05-24T20:43:59.982Z,8.30
2023-05-24T20:46:28.488Z,7.60
2023-05-24T20:51:26.613Z,8.60
2023-05-24T20:56:26.318Z,7.50
2023-05-24T20:58:59.309Z,9.60
2023-05-24T21:01:29.355Z,7.40
2023-05-24T21:09:01.863Z,8.70
2023-05-24T21:11:32.846Z,9.90
2023-05-24T21:14:02.450Z,9.60
2023-05-24T21:16:33.763Z,9.10
2023-05-24T21:21:33.392Z,10.60
2023-05-24T21:24:02.784Z,9.10
2023-05-24T21:26:32.210Z,8.30
2023-05-24T21:29:00.449Z,10.50
2023-05-24T21:31:33.109Z,8.20
2023-05-24T21:34:04.124Z,9.00
2023-05-24T21:39:07.484Z,8.20
2023-05-24T21:41:35.808Z,10.70
2023-05-24T21:44:08.476Z,9.90
2023-05-24T21:46:37.325Z,10.20
2023-05-24T21:49:09.313Z,8.30
2023-05-24T21:54:08.358Z,11.20
2023-05-24T21:59:06.427Z,9.10
2023-05-24T22:01:34.681Z,11.00
2023-05-24T22:04:04.185Z,8.50
2023-05-24T22:06:33.847Z,11.00
2023-05-24T22:09:03.371Z,10.80
2023-05-24T22:11:33.168Z,10.50
2023-05-24T22:16:32.587Z,10.50
2023-05-24T22:21:34.589Z,8.00
2023-05-24T22:24:02.997Z,10.40
2023-05-24T22:29:03.820Z,10.40
2023-05-24T22:31:35.706Z,8.90
2023-05-24T22:34:04.202Z,9.40
2023-05-24T22:36:38.799Z,9.00
2023-05-24T22:39:08.310Z,10.10
2023-05-24T22:44:06.173Z,9.40
2023-05-24T22:49:05.899Z,8.10
2023-05-24T22:51:37.721Z,7.60
2023-05-24T22:54:06.218Z,7.10
2023-05-24T22:56:36.133Z,7.30
2023-05-24T22:59:04.586Z,8.20
2023-05-24T23:01:33.738Z,7.10
2023-05-24T23:06:52.548Z,7.30
2023-05-24T23:09:30.105Z,6.40
2023-05-24T23:11:59.738Z,7.30
2023-05-24T23:14:31.714Z,9.20
2023-05-24T23:17:02.738Z,7.40
2023-05-24T23:19:33.358Z,6.50
2023-05-24T23:22:05.792Z,6.40
2023-05-24T23:29:38.961Z,6.20
2023-05-24T23:32:09.813Z,7.40
2023-05-24T23:34:39.481Z,6.20
2023-05-24T23:37:10.593Z,7.30
2023-05-24T23:39:40.250Z,5.70
2023-05-24T23:44:38.374Z,8.30
2023-05-24T23:47:08.290Z,5.70
2023-05-24T23:49:36.411Z,7.10
2023-05-24T23:52:08.520Z,5.20
2023-05-24T23:54:37.984Z,6.00
2023-05-24T23:57:07.604Z,9.00
2023-05-24T23:59:37.744Z,6.20
